Time,TemperatureF,DewpointF,PressureIn,WindDirection,WindDirectionDegrees,WindSpeedMPH,WindSpeedGustMPH,Humidity,HourlyPrecipIn,Conditions,Clouds,dailyrainin,SoftwareType,DateUTC
2013-08-30 00:00:00,60.0,58.3,30.04,ENE,61,0.0,11.0,94,0.00,,,0.00,Wunderground v.1.15,2013-08-30 04:00:00,
2013-08-30 00:05:00,60.0,58.3,30.04,ENE,61,0.0,11.0,94,0.00,,,0.00,Wunderground v.1.15,2013-08-30 04:05:00,
2013-08-30 00:10:00,59.9,58.2,30.03,ENE,61,0.0,11.0,94,0.00,,,0.00,Wunderground v.1.15,2013-08-30 04:10:00,
2013-08-30 00:15:00,59.9,58.2,30.03,ENE,61,0.0,11.0,94,0.00,,,0.00,Wunderground v.1.15,2013-08-30 04:15:00,
2013-08-30 00:20:00,59.8,58.1,30.02,ENE,61,0.0,11.0,94,0.00,,,0.00,Wunderground v.1.15,2013-08-30 04:20:00,
2013-08-30 00:25:00,59.8,58.1,30.02,ENE,62,1.0,11.0,94,0.00,,,0.00,Wunderground v.1.15,2013-08-30 04:25:00,
2013-08-30 00:30:00,59.7,58.0,30.02,ENE,62,1.0,1.0,94,0.00,,,0.00,Wunderground v.1.15,2013-08-30 04:30:00,
2013-08-30 00:35:00,59.6,57.9,30.02,ENE,61,1.0,11.0,94,0.00,,,0.00,Wunderground v.1.15,2013-08-30 04:35:00,
2013-08-30 00:40:00,59.5,57.8,30.02,ENE,61,1.0,1.0,94,0.00,,,0.00,Wunderground v.1.15,2013-08-30 04:40:00,
2013-08-30 00:45:00,59.4,57.7,30.02,ENE,61,0.0,11.0,94,0.00,,,0.00,Wunderground v.1.15,2013-08-30 04:45:00,
2013-08-30 00:55:00,59.1,57.4,30.02,ENE,61,0.0,11.0,94,0.00,,,0.00,Wunderground v.1.15,2013-08-30 04:55:00,
2013-08-30 01:00:00,59.0,57.3,30.02,ENE,61,0.0,11.0,94,0.00,,,0.00,Wunderground v.1.15,2013-08-30 05:00:00,
2013-08-30 01:05:00,59.0,57.6,30.02,ENE,61,0.0,11.0,95,0.00,,,0.00,Wunderground v.1.15,2013-08-30 05:05:00,
2013-08-30 01:15:00,58.9,57.5,30.02,ENE,61,0.0,11.0,95,0.00,,,0.00,Wunderground v.1.15,2013-08-30 05:15:00,
2013-08-30 01:20:00,58.8,57.4,30.02,ENE,61,1.0,11.0,95,0.00,,,0.00,Wunderground v.1.15,2013-08-30 05:20:00,
2013-08-30 01:25:00,58.6,57.2,30.03,WNW,283,2.0,11.0,95,0.00,,,0.00,Wunderground v.1.15,2013-08-30 05:25:00,
2013-08-30 01:30:00,58.4,57.0,30.03,WSW,250,3.0,3.0,95,0.00,,,0.00,Wunderground v.1.15,2013-08-30 05:30:00,
2013-08-30 01:40:00,58.4,57.0,30.02,WSW,255,3.0,3.0,95,0.00,,,0.00,Wunderground v.1.15,2013-08-30 05:40:00,
2013-08-30 01:45:00,58.4,57.3,30.02,WSW,250,2.0,11.0,96,0.00,,,0.00,Wunderground v.1.15,2013-08-30 05:45:00,
2013-08-30 01:50:00,58.5,57.4,30.02,WSW,250,1.0,1.0,96,0.00,,,0.00,Wunderground v.1.15,2013-08-30 05:50:00,
2013-08-30 01:55:00,58.5,57.4,30.02,WSW,255,0.0,11.0,96,0.00,,,0.00,Wunderground v.1.15,2013-08-30 05:55:00,
2013-08-30 02:00:00,58.6,57.5,30.02,SW,222,0.0,11.0,96,0.00,,,0.00,Wunderground v.1.15,2013-08-30 06:00:00,
2013-08-30 02:10:00,58.7,57.6,30.02,SW,222,1.0,1.0,96,0.00,,,0.00,Wunderground v.1.15,2013-08-30 06:10:00,
2013-08-30 02:15:00,58.8,57.7,30.01,SW,223,0.0,11.0,96,0.00,,,0.00,Wunderground v.1.15,2013-08-30 06:15:00,
2013-08-30 02:25:00,58.7,57.6,30.00,SSW,209,1.0,11.0,96,0.00,,,0.00,Wunderground v.1.15,2013-08-30 06:25:00,
2013-08-30 02:30:00,58.6,57.5,30.00,SSW,194,3.0,3.0,96,0.00,,,0.00,Wunderground v.1.15,2013-08-30 06:30:00,
2013-08-30 02:35:00,58.4,57.3,30.00,SSW,194,2.0,11.0,96,0.00,,,0.00,Wunderground v.1.15,2013-08-30 06:35:00,
2013-08-30 02:40:00,58.2,57.1,30.00,SSW,194,1.0,1.0,96,0.00,,,0.00,Wunderground v.1.15,2013-08-30 06:40:00,
2013-08-30 02:45:00,58.0,56.9,30.00,SSW,193,0.0,11.0,96,0.00,,,0.00,Wunderground v.1.15,2013-08-30 06:45:00,
2013-08-30 02:55:00,58.1,57.0,30.00,SSW,193,1.0,11.0,96,0.00,,,0.00,Wunderground v.1.15,2013-08-30 06:55:00,
2013-08-30 03:00:00,58.2,57.4,30.00,SSW,194,0.0,11.0,97,0.00,,,0.00,Wunderground v.1.15,2013-08-30 07:00:00,
2013-08-30 03:05:00,58.3,57.5,30.00,SSW,193,0.0,11.0,97,0.00,,,0.00,Wunderground v.1.15,2013-08-30 07:05:00,
2013-08-30 03:10:00,58.3,57.5,29.99,SSW,194,0.0,11.0,97,0.00,,,0.00,Wunderground v.1.15,2013-08-30 07:10:00,
2013-08-30 03:15:00,58.3,57.5,29.99,SSW,194,0.0,11.0,97,0.00,,,0.00,Wunderground v.1.15,2013-08-30 07:15:00,
2013-08-30 03:25:00,58.4,57.6,29.99,SSW,193,0.0,11.0,97,0.00,,,0.00,Wunderground v.1.15,2013-08-30 07:25:00,
2013-08-30 03:30:00,58.4,57.6,29.99,SSW,194,0.0,11.0,97,0.00,,,0.00,Wunderground v.1.15,2013-08-30 07:30:00,
2013-08-30 03:35:00,58.5,57.7,29.99,SSW,194,0.0,11.0,97,0.00,,,0.00,Wunderground v.1.15,2013-08-30 07:35:00,
2013-08-30 03:40:00,58.6,57.8,29.99,SSW,194,0.0,11.0,97,0.00,,,0.00,Wunderground v.1.15,2013-08-30 07:40:00,
2013-08-30 03:50:00,58.5,57.7,29.98,SSW,193,0.0,11.0,97,0.00,,,0.00,Wunderground v.1.15,2013-08-30 07:50:00,
2013-08-30 03:55:00,58.4,57.6,29.98,SSW,193,0.0,11.0,97,0.00,,,0.00,Wunderground v.1.15,2013-08-30 07:55:00,
2013-08-30 04:00:00,58.4,57.6,29.99,SSW,193,0.0,11.0,97,0.00,,,0.00,Wunderground v.1.15,2013-08-30 08:00:00,
2013-08-30 04:10:00,58.3,57.5,29.98,SSW,194,2.0,11.0,97,0.00,,,0.00,Wunderground v.1.15,2013-08-30 08:10:00,
2013-08-30 04:15:00,58.4,57.6,29.98,SSW,193,1.0,11.0,97,0.00,,,0.00,Wunderground v.1.15,2013-08-30 08:15:00,
2013-08-30 04:20:00,58.4,57.6,29.98,SSW,194,1.0,11.0,97,0.00,,,0.00,Wunderground v.1.15,2013-08-30 08:20:00,
2013-08-30 04:25:00,58.5,57.7,29.97,SSW,194,2.0,11.0,97,0.00,,,0.00,Wunderground v.1.15,2013-08-30 08:25:00,
2013-08-30 04:30:00,58.5,57.7,29.97,SSW,194,1.0,1.0,97,0.00,,,0.00,Wunderground v.1.15,2013-08-30 08:30:00,
2013-08-30 04:40:00,58.6,57.8,29.98,SSW,194,0.0,11.0,97,0.00,,,0.00,Wunderground v.1.15,2013-08-30 08:40:00,
2013-08-30 04:45:00,58.6,57.8,29.98,SSW,194,0.0,11.0,97,0.00,,,0.00,Wunderground v.1.15,2013-08-30 08:45:00,
2013-08-30 04:50:00,58.6,57.8,29.98,SSW,194,0.0,11.0,97,0.00,,,0.00,Wunderground v.1.15,2013-08-30 08:50:00,
2013-08-30 04:55:00,58.7,57.9,29.98,SSW,194,0.0,11.0,97,0.00,,,0.00,Wunderground v.1.15,2013-08-30 08:55:00,
2013-08-30 05:05:00,58.7,57.9,29.97,SSW,194,2.0,2.0,97,0.00,,,0.00,Wunderground v.1.15,2013-08-30 09:05:00,
2013-08-30 05:10:00,58.7,57.9,29.97,SSW,193,2.0,2.0,97,0.00,,,0.00,Wunderground v.1.15,2013-08-30 09:10:00,
2013-08-30 05:15:00,58.7,57.9,29.97,SSW,194,1.0,11.0,97,0.00,,,0.00,Wunderground v.1.15,2013-08-30 09:15:00,
2013-08-30 05:20:00,58.7,57.9,29.97,SSW,193,0.0,11.0,97,0.00,,,0.00,Wunderground v.1.15,2013-08-30 09:20:00,
2013-08-30 05:25:00,58.7,57.9,29.97,SSW,194,0.0,11.0,97,0.00,,,0.00,Wunderground v.1.15,2013-08-30 09:25:00,
2013-08-30 05:35:00,58.7,57.9,29.98,SSW,193,0.0,11.0,97,0.00,,,0.00,Wunderground v.1.15,2013-08-30 09:35:00,
2013-08-30 05:40:00,58.8,58.0,29.98,SSW,193,1.0,1.0,97,0.00,,,0.00,Wunderground v.1.15,2013-08-30 09:40:00,
2013-08-30 05:45:00,58.9,58.1,29.98,SSW,194,0.0,2.0,97,0.00,,,0.00,Wunderground v.1.15,2013-08-30 09:45:00,
2013-08-30 05:55:00,58.9,58.1,29.98,SSW,194,1.0,11.0,97,0.00,,,0.00,Wunderground v.1.15,2013-08-30 09:55:00,
2013-08-30 06:00:00,59.0,58.2,29.98,SSW,193,0.0,11.0,97,0.00,,,0.00,Wunderground v.1.15,2013-08-30 10:00:00,
2013-08-30 06:05:00,59.0,58.2,29.98,SSW,194,0.0,11.0,97,0.00,,,0.00,Wunderground v.1.15,2013-08-30 10:05:00,
2013-08-30 06:10:00,58.9,58.1,29.98,SSW,194,0.0,11.0,97,0.00,,,0.00,Wunderground v.1.15,2013-08-30 10:10:00,
2013-08-30 06:20:00,58.8,58.0,29.98,SSW,193,1.0,11.0,97,0.00,,,0.00,Wunderground v.1.15,2013-08-30 10:20:00,
2013-08-30 06:25:00,58.8,58.0,29.98,SSW,194,1.0,11.0,97,0.00,,,0.00,Wunderground v.1.15,2013-08-30 10:25:00,
2013-08-30 06:30:00,58.8,58.0,29.98,SSW,194,1.0,1.0,97,0.00,,,0.00,Wunderground v.1.15,2013-08-30 10:30:00,
2013-08-30 06:35:00,58.7,57.9,29.98,SSW,194,1.0,11.0,97,0.00,,,0.00,Wunderground v.1.15,2013-08-30 10:35:00,
2013-08-30 06:40:00,58.7,57.9,29.98,SSW,194,0.0,11.0,97,0.00,,,0.00,Wunderground v.1.15,2013-08-30 10:40:00,
2013-08-30 06:50:00,58.9,58.1,29.97,SSW,193,1.0,1.0,97,0.00,,,0.00,Wunderground v.1.15,2013-08-30 10:50:00,
2013-08-30 06:55:00,58.9,58.1,29.97,SSW,193,1.0,11.0,97,0.00,,,0.00,Wunderground v.1.15,2013-08-30 10:55:00,
2013-08-30 07:00:00,59.1,58.2,29.97,SSW,194,0.0,11.0,97,0.00,,,0.00,Wunderground v.1.15,2013-08-30 11:00:00,
2013-08-30 07:05:00,59.4,58.5,29.97,SSW,194,0.0,11.0,97,0.00,,,0.00,Wunderground v.1.15,2013-08-30 11:05:00,
2013-08-30 07:15:00,60.0,59.1,29.97,SSW,193,0.0,11.0,97,0.00,,,0.00,Wunderground v.1.15,2013-08-30 11:15:00,
2013-08-30 07:20:00,60.2,59.3,29.97,SSW,194,0.0,11.0,97,0.00,,,0.00,Wunderground v.1.15,2013-08-30 11:20:00,
2013-08-30 07:25:00,60.5,59.6,29.97,SSW,194,0.0,11.0,97,0.00,,,0.00,Wunderground v.1.15,2013-08-30 11:25:00,
2013-08-30 07:30:00,60.9,60.0,29.97,SSW,193,0.0,11.0,97,0.00,,,0.00,Wunderground v.1.15,2013-08-30 11:30:00,
2013-08-30 07:35:00,61.4,60.5,29.96,SSW,194,0.0,11.0,97,0.00,,,0.00,Wunderground v.1.15,2013-08-30 11:35:00,
2013-08-30 07:40:00,61.8,60.9,29.96,SSW,193,1.0,11.0,97,0.00,,,0.00,Wunderground v.1.15,2013-08-30 11:40:00,
2013-08-30 07:50:00,62.5,61.3,29.96,SSW,193,2.0,11.0,96,0.00,,,0.00,Wunderground v.1.15,2013-08-30 11:50:00,
2013-08-30 07:55:00,62.9,61.4,29.96,SSW,194,2.0,11.0,95,0.00,,,0.00,Wunderground v.1.15,2013-08-30 11:55:00,
2013-08-30 08:00:00,63.1,61.6,29.96,SW,223,2.0,11.0,95,0.00,,,0.00,Wunderground v.1.15,2013-08-30 12:00:00,
2013-08-30 08:05:00,63.3,61.5,29.97,SW,223,2.0,11.0,94,0.00,,,0.00,Wunderground v.1.15,2013-08-30 12:05:00,
2013-08-30 08:15:00,63.5,61.7,29.97,SSW,207,3.0,11.0,94,0.00,,,0.00,Wunderground v.1.15,2013-08-30 12:15:00,
2013-08-30 08:20:00,63.5,61.7,29.97,SSW,196,3.0,3.0,94,0.00,,,0.00,Wunderground v.1.15,2013-08-30 12:20:00,
2013-08-30 08:25:00,63.7,61.9,29.97,SSW,205,3.0,11.0,94,0.00,,,0.00,Wunderground v.1.15,2013-08-30 12:25:00,
2013-08-30 08:30:00,63.9,62.1,29.96,SSW,205,2.0,2.0,94,0.00,,,0.00,Wunderground v.1.15,2013-08-30 12:30:00,
2013-08-30 08:35:00,64.3,62.5,29.96,SSW,205,1.0,11.0,94,0.00,,,0.00,Wunderground v.1.15,2013-08-30 12:35:00,
2013-08-30 08:45:00,65.4,63.3,29.96,West,265,1.0,11.0,93,0.00,,,0.00,Wunderground v.1.15,2013-08-30 12:45:00,
2013-08-30 08:50:00,65.8,63.7,29.96,West,265,1.0,1.0,93,0.00,,,0.00,Wunderground v.1.15,2013-08-30 12:50:00,
2013-08-30 08:55:00,66.1,63.7,29.96,NNW,340,0.0,4.0,92,0.00,,,0.00,Wunderground v.1.15,2013-08-30 12:55:00,
2013-08-30 09:00:00,66.4,64.0,29.96,West,278,2.0,11.0,92,0.00,,,0.00,Wunderground v.1.15,2013-08-30 13:00:00,
2013-08-30 09:10:00,66.6,64.2,29.95,SSE,159,2.0,11.0,92,0.00,,,0.00,Wunderground v.1.15,2013-08-30 13:10:00,
2013-08-30 09:15:00,66.4,63.4,29.96,NNW,340,2.0,11.0,90,0.00,,,0.00,Wunderground v.1.15,2013-08-30 13:15:00,
2013-08-30 09:20:00,66.5,63.8,29.96,WSW,255,3.0,3.0,91,0.00,,,0.00,Wunderground v.1.15,2013-08-30 13:20:00,
2013-08-30 09:30:00,66.8,63.8,29.96,ESE,109,1.0,1.0,90,0.00,,,0.00,Wunderground v.1.15,2013-08-30 13:30:00,
2013-08-30 09:35:00,67.0,64.3,29.96,NNW,346,1.0,11.0,91,0.00,,,0.00,Wunderground v.1.15,2013-08-30 13:35:00,
2013-08-30 09:40:00,67.1,64.1,29.95,West,278,2.0,11.0,90,0.00,,,0.00,Wunderground v.1.15,2013-08-30 13:40:00,
2013-08-30 09:45:00,67.5,64.5,29.95,WSW,239,4.0,11.0,90,0.00,,,0.00,Wunderground v.1.15,2013-08-30 13:45:00,
2013-08-30 09:50:00,67.6,64.2,29.95,WSW,245,4.0,4.0,89,0.00,,,0.00,Wunderground v.1.15,2013-08-30 13:50:00,
2013-08-30 10:00:00,68.0,64.6,29.95,WSW,245,4.0,4.0,89,0.00,,,0.00,Wunderground v.1.15,2013-08-30 14:00:00,
2013-08-30 10:05:00,67.9,64.5,29.94,WSW,245,3.0,11.0,89,0.00,,,0.00,Wunderground v.1.15,2013-08-30 14:05:00,
2013-08-30 10:10:00,68.2,64.5,29.95,WSW,245,3.0,11.0,88,0.00,,,0.00,Wunderground v.1.15,2013-08-30 14:10:00,
2013-08-30 10:15:00,68.4,65.0,29.95,SW,232,3.0,11.0,89,0.00,,,0.00,Wunderground v.1.15,2013-08-30 14:15:00,
2013-08-30 10:25:00,69.1,65.7,29.94,West,261,5.0,11.0,89,0.00,,,0.00,Wunderground v.1.15,2013-08-30 14:25:00,
2013-08-30 10:30:00,69.5,65.5,29.93,SW,226,4.0,4.0,87,0.00,,,0.00,Wunderground v.1.15,2013-08-30 14:30:00,
2013-08-30 10:35:00,70.2,65.8,29.93,SW,221,3.0,11.0,86,0.00,,,0.00,Wunderground v.1.15,2013-08-30 14:35:00,
2013-08-30 10:45:00,70.4,65.3,29.93,SSW,194,3.0,11.0,84,0.00,,,0.00,Wunderground v.1.15,2013-08-30 14:45:00,
2013-08-30 10:50:00,70.3,65.6,29.93,SSW,201,4.0,4.0,85,0.00,,,0.00,Wunderground v.1.15,2013-08-30 14:50:00,
2013-08-30 10:55:00,70.5,66.1,29.93,SW,230,4.0,11.0,86,0.00,,,0.00,Wunderground v.1.15,2013-08-30 14:55:00,
2013-08-30 11:00:00,70.7,65.6,29.93,South,186,3.0,11.0,84,0.00,,,0.00,Wunderground v.1.15,2013-08-30 15:00:00,
2013-08-30 11:05:00,70.9,65.8,29.93,South,173,3.0,11.0,84,0.00,,,0.00,Wunderground v.1.15,2013-08-30 15:05:00,
2013-08-30 11:15:00,70.9,65.8,29.93,South,174,5.0,11.0,84,0.00,,,0.00,Wunderground v.1.15,2013-08-30 15:15:00,
2013-08-30 11:20:00,71.0,66.6,29.93,SSW,195,5.0,11.0,86,0.00,,,0.00,Wunderground v.1.15,2013-08-30 15:20:00,
2013-08-30 11:25:00,71.2,66.5,29.92,South,185,4.0,11.0,85,0.00,,,0.00,Wunderground v.1.15,2013-08-30 15:25:00,
2013-08-30 11:30:00,72.0,66.9,29.92,South,180,4.0,11.0,84,0.00,,,0.00,Wunderground v.1.15,2013-08-30 15:30:00,
2013-08-30 11:35:00,72.4,66.6,29.92,South,188,4.0,11.0,82,0.00,,,0.00,Wunderground v.1.15,2013-08-30 15:35:00,
2013-08-30 11:45:00,72.4,66.2,29.92,South,186,4.0,11.0,81,0.00,,,0.00,Wunderground v.1.15,2013-08-30 15:45:00,
2013-08-30 11:50:00,73.0,66.8,29.92,SW,232,4.0,4.0,81,0.00,,,0.00,Wunderground v.1.15,2013-08-30 15:50:00,
2013-08-30 11:55:00,73.1,66.6,29.92,SSW,192,4.0,11.0,80,0.00,,,0.00,Wunderground v.1.15,2013-08-30 15:55:00,
2013-08-30 12:00:00,73.4,66.5,29.92,South,180,4.0,11.0,79,0.00,,,0.00,Wunderground v.1.15,2013-08-30 16:00:00,
2013-08-30 12:10:00,74.0,66.7,29.91,SSW,208,4.0,11.0,78,0.00,,,0.00,Wunderground v.1.15,2013-08-30 16:10:00,
2013-08-30 12:15:00,74.4,66.7,29.91,South,188,4.0,11.0,77,0.00,,,0.00,Wunderground v.1.15,2013-08-30 16:15:00,
2013-08-30 12:20:00,74.3,66.6,29.91,SW,217,4.0,4.0,77,0.00,,,0.00,Wunderground v.1.15,2013-08-30 16:20:00,
2013-08-30 12:30:00,74.2,65.8,29.90,WSW,245,4.0,11.0,75,0.00,,,0.00,Wunderground v.1.15,2013-08-30 16:30:00,
2013-08-30 12:35:00,74.7,67.0,29.89,SW,224,4.0,11.0,77,0.00,,,0.00,Wunderground v.1.15,2013-08-30 16:35:00,
2013-08-30 12:40:00,75.0,66.5,29.89,SSW,197,3.0,3.0,75,0.00,,,0.00,Wunderground v.1.15,2013-08-30 16:40:00,
2013-08-30 12:45:00,75.3,66.8,29.89,South,186,2.0,11.0,75,0.00,,,0.00,Wunderground v.1.15,2013-08-30 16:45:00,
2013-08-30 12:50:00,75.2,66.3,29.89,South,184,3.0,3.0,74,0.00,,,0.00,Wunderground v.1.15,2013-08-30 16:50:00,
2013-08-30 13:00:00,75.7,67.6,29.88,SSW,199,3.0,11.0,76,0.00,,,0.00,Wunderground v.1.15,2013-08-30 17:00:00,
2013-08-30 13:05:00,75.7,66.8,29.88,SSW,211,3.0,11.0,74,0.00,,,0.00,Wunderground v.1.15,2013-08-30 17:05:00,
2013-08-30 13:10:00,75.7,66.8,29.89,South,188,3.0,3.0,74,0.00,,,0.00,Wunderground v.1.15,2013-08-30 17:10:00,
2013-08-30 13:15:00,76.4,67.5,29.88,SSW,196,2.0,5.0,74,0.00,,,0.00,Wunderground v.1.15,2013-08-30 17:15:00,
2013-08-30 13:25:00,77.0,67.3,29.88,South,179,5.0,5.0,72,0.00,,,0.00,Wunderground v.1.15,2013-08-30 17:25:00,
2013-08-30 13:30:00,77.0,66.9,29.88,South,181,4.0,4.0,71,0.00,,,0.00,Wunderground v.1.15,2013-08-30 17:30:00,
2013-08-30 13:35:00,77.3,68.4,29.88,South,175,3.0,6.0,74,0.00,,,0.00,Wunderground v.1.15,2013-08-30 17:35:00,
2013-08-30 13:40:00,77.5,66.9,29.87,South,189,4.0,4.0,70,0.00,,,0.00,Wunderground v.1.15,2013-08-30 17:40:00,
2013-08-30 13:50:00,77.9,67.7,29.87,South,184,2.0,11.0,71,0.00,,,0.00,Wunderground v.1.15,2013-08-30 17:50:00,
2013-08-30 13:55:00,78.0,67.4,29.87,South,186,4.0,11.0,70,0.00,,,0.00,Wunderground v.1.15,2013-08-30 17:55:00,
2013-08-30 14:00:00,77.9,68.1,29.86,South,173,5.0,5.0,72,0.00,,,0.00,Wunderground v.1.15,2013-08-30 18:00:00,
2013-08-30 14:05:00,78.2,68.0,29.86,South,186,5.0,11.0,71,0.00,,,0.00,Wunderground v.1.15,2013-08-30 18:05:00,
2013-08-30 14:15:00,78.5,67.5,29.86,SSE,165,4.0,11.0,69,0.00,,,0.00,Wunderground v.1.15,2013-08-30 18:15:00,
2013-08-30 14:20:00,78.4,67.0,29.86,SSE,168,6.0,6.0,68,0.00,,,0.00,Wunderground v.1.15,2013-08-30 18:20:00,
2013-08-30 14:25:00,78.6,68.0,29.86,SW,223,5.0,11.0,70,0.00,,,0.00,Wunderground v.1.15,2013-08-30 18:25:00,
2013-08-30 14:30:00,78.8,67.3,29.85,SW,225,4.0,4.0,68,0.00,,,0.00,Wunderground v.1.15,2013-08-30 18:30:00,
2013-08-30 14:35:00,78.4,67.4,29.85,South,184,4.0,5.0,69,0.00,,,0.00,Wunderground v.1.15,2013-08-30 18:35:00,
2013-08-30 14:45:00,79.0,67.5,29.85,SSW,199,4.0,11.0,68,0.00,,,0.00,Wunderground v.1.15,2013-08-30 18:45:00,
2013-08-30 14:50:00,79.3,68.2,29.85,South,183,4.0,11.0,69,0.00,,,0.00,Wunderground v.1.15,2013-08-30 18:50:00,
2013-08-30 14:55:00,79.1,67.2,29.85,SW,223,4.0,11.0,67,0.00,,,0.00,Wunderground v.1.15,2013-08-30 18:55:00,
2013-08-30 15:00:00,79.2,67.7,29.85,SSW,201,4.0,4.0,68,0.00,,,0.00,Wunderground v.1.15,2013-08-30 19:00:00,
2013-08-30 15:05:00,79.3,67.8,29.85,WSW,240,4.0,6.0,68,0.00,,,0.00,Wunderground v.1.15,2013-08-30 19:05:00,
2013-08-30 15:15:00,79.6,68.1,29.84,WSW,250,3.0,11.0,68,0.00,,,0.00,Wunderground v.1.15,2013-08-30 19:15:00,
2013-08-30 15:20:00,79.5,68.0,29.84,South,175,4.0,11.0,68,0.00,,,0.00,Wunderground v.1.15,2013-08-30 19:20:00,
2013-08-30 15:30:00,79.8,68.3,29.84,WSW,245,4.0,11.0,68,0.00,,,0.00,Wunderground v.1.15,2013-08-30 19:30:00,
2013-08-30 15:35:00,80.0,68.9,29.84,SSW,210,3.0,11.0,69,0.00,,,0.00,Wunderground v.1.15,2013-08-30 19:35:00,
2013-08-30 15:40:00,80.8,69.2,29.84,SSW,196,2.0,11.0,68,0.00,,,0.00,Wunderground v.1.15,2013-08-30 19:40:00,
2013-08-30 15:45:00,80.9,68.9,29.84,SSW,194,3.0,11.0,67,0.00,,,0.00,Wunderground v.1.15,2013-08-30 19:45:00,
2013-08-30 15:50:00,80.5,68.1,29.83,SSW,196,4.0,11.0,66,0.00,,,0.00,Wunderground v.1.15,2013-08-30 19:50:00,
2013-08-30 16:00:00,80.4,68.4,29.83,WSW,245,5.0,5.0,67,0.00,,,0.00,Wunderground v.1.15,2013-08-30 20:00:00,
2013-08-30 16:05:00,80.6,68.2,29.83,SW,224,4.0,11.0,66,0.00,,,0.00,Wunderground v.1.15,2013-08-30 20:05:00,
2013-08-30 16:10:00,80.7,67.8,29.83,SW,221,3.0,3.0,65,0.00,,,0.00,Wunderground v.1.15,2013-08-30 20:10:00,
2013-08-30 16:15:00,80.9,68.0,29.83,SSW,199,3.0,11.0,65,0.00,,,0.00,Wunderground v.1.15,2013-08-30 20:15:00,
2013-08-30 16:20:00,80.9,68.5,29.83,SW,220,3.0,3.0,66,0.00,,,0.00,Wunderground v.1.15,2013-08-30 20:20:00,
2013-08-30 16:30:00,81.0,68.1,29.83,SSW,206,3.0,3.0,65,0.00,,,0.00,Wunderground v.1.15,2013-08-30 20:30:00,
2013-08-30 16:35:00,80.6,67.7,29.83,SSW,194,4.0,4.0,65,0.00,,,0.00,Wunderground v.1.15,2013-08-30 20:35:00,
2013-08-30 16:40:00,80.6,68.2,29.83,SSW,213,4.0,4.0,66,0.00,,,0.00,Wunderground v.1.15,2013-08-30 20:40:00,
2013-08-30 16:45:00,80.7,67.8,29.83,WSW,245,3.0,11.0,65,0.00,,,0.00,Wunderground v.1.15,2013-08-30 20:45:00,
2013-08-30 16:55:00,80.3,67.5,29.83,South,188,4.0,11.0,65,0.00,,,0.00,Wunderground v.1.15,2013-08-30 20:55:00,
2013-08-30 17:00:00,80.4,67.6,29.83,SSW,197,3.0,11.0,65,0.00,,,0.00,Wunderground v.1.15,2013-08-30 21:00:00,
2013-08-30 17:05:00,80.6,68.2,29.83,SW,224,3.0,11.0,66,0.00,,,0.00,Wunderground v.1.15,2013-08-30 21:05:00,
2013-08-30 17:10:00,80.8,68.4,29.83,SSW,195,3.0,11.0,66,0.00,,,0.00,Wunderground v.1.15,2013-08-30 21:10:00,
2013-08-30 17:20:00,80.5,67.6,29.82,SW,230,3.0,11.0,65,0.00,,,0.00,Wunderground v.1.15,2013-08-30 21:20:00,
2013-08-30 17:25:00,80.2,67.4,29.83,WSW,245,3.0,11.0,65,0.00,,,0.00,Wunderground v.1.15,2013-08-30 21:25:00,
2013-08-30 17:30:00,79.8,67.9,29.82,South,188,4.0,4.0,67,0.00,,,0.00,Wunderground v.1.15,2013-08-30 21:30:00,
2013-08-30 17:35:00,79.6,67.2,29.83,SSW,203,4.0,11.0,66,0.00,,,0.00,Wunderground v.1.15,2013-08-30 21:35:00,
2013-08-30 17:45:00,79.2,67.3,29.82,South,191,3.0,11.0,67,0.00,,,0.00,Wunderground v.1.15,2013-08-30 21:45:00,
2013-08-30 17:50:00,79.1,67.6,29.82,South,184,3.0,11.0,68,0.00,,,0.00,Wunderground v.1.15,2013-08-30 21:50:00,
2013-08-30 17:55:00,79.0,67.5,29.82,South,186,3.0,11.0,68,0.00,,,0.00,Wunderground v.1.15,2013-08-30 21:55:00,
2013-08-30 18:00:00,78.7,67.7,29.82,South,182,4.0,11.0,69,0.00,,,0.00,Wunderground v.1.15,2013-08-30 22:00:00,
2013-08-30 18:10:00,78.5,68.3,29.82,SSW,192,4.0,4.0,71,0.00,,,0.00,Wunderground v.1.15,2013-08-30 22:10:00,
2013-08-30 18:15:00,78.4,67.8,29.82,SSW,200,3.0,6.0,70,0.00,,,0.00,Wunderground v.1.15,2013-08-30 22:15:00,
2013-08-30 18:20:00,78.0,68.2,29.82,South,176,3.0,3.0,72,0.00,,,0.00,Wunderground v.1.15,2013-08-30 22:20:00,
2013-08-30 18:25:00,77.5,67.8,29.82,South,176,3.0,11.0,72,0.00,,,0.00,Wunderground v.1.15,2013-08-30 22:25:00,
2013-08-30 18:35:00,76.7,68.2,29.82,South,170,2.0,11.0,75,0.00,,,0.00,Wunderground v.1.15,2013-08-30 22:35:00,
2013-08-30 18:40:00,76.4,68.3,29.82,SSE,165,3.0,11.0,76,0.00,,,0.00,Wunderground v.1.15,2013-08-30 22:40:00,
2013-08-30 18:45:00,76.0,67.9,29.83,SSE,165,3.0,11.0,76,0.00,,,0.00,Wunderground v.1.15,2013-08-30 22:45:00,
2013-08-30 18:50:00,75.7,68.0,29.83,SSE,166,3.0,11.0,77,0.00,,,0.00,Wunderground v.1.15,2013-08-30 22:50:00,
2013-08-30 19:00:00,75.0,67.7,29.82,South,170,2.0,11.0,78,0.00,,,0.00,Wunderground v.1.15,2013-08-30 23:00:00,
2013-08-30 19:05:00,74.8,67.8,29.82,South,171,3.0,11.0,79,0.00,,,0.00,Wunderground v.1.15,2013-08-30 23:05:00,
2013-08-30 19:10:00,74.4,67.8,29.83,South,171,3.0,11.0,80,0.00,,,0.00,Wunderground v.1.15,2013-08-30 23:10:00,
2013-08-30 19:15:00,74.3,67.7,29.83,South,178,3.0,11.0,80,0.00,,,0.00,Wunderground v.1.15,2013-08-30 23:15:00,
2013-08-30 19:20:00,74.0,67.8,29.83,SSW,194,3.0,11.0,81,0.00,,,0.00,Wunderground v.1.15,2013-08-30 23:20:00,
2013-08-30 19:30:00,73.6,67.8,29.83,SSW,194,3.0,11.0,82,0.00,,,0.00,Wunderground v.1.15,2013-08-30 23:30:00,
2013-08-30 19:35:00,73.6,67.4,29.83,South,191,4.0,11.0,81,0.00,,,0.00,Wunderground v.1.15,2013-08-30 23:35:00,
2013-08-30 19:40:00,73.6,67.4,29.83,South,182,4.0,11.0,81,0.00,,,0.00,Wunderground v.1.15,2013-08-30 23:40:00,
2013-08-30 19:50:00,73.4,67.6,29.83,South,189,5.0,5.0,82,0.00,,,0.00,Wunderground v.1.15,2013-08-30 23:50:00,
2013-08-30 20:00:00,73.7,67.5,29.82,SSW,196,6.0,11.0,81,0.00,,,0.00,Wunderground v.1.15,2013-08-31 00:00:00,
2013-08-30 20:05:00,73.8,67.6,29.82,SSW,194,7.0,11.0,81,0.00,,,0.00,Wunderground v.1.15,2013-08-31 00:05:00,
2013-08-30 20:10:00,73.8,67.6,29.82,South,187,7.0,7.0,81,0.00,,,0.00,Wunderground v.1.15,2013-08-31 00:10:00,
2013-08-30 20:20:00,73.4,67.6,29.83,SSW,196,6.0,6.0,82,0.00,,,0.00,Wunderground v.1.15,2013-08-31 00:20:00,
2013-08-30 20:25:00,73.0,67.5,29.83,South,191,5.0,11.0,83,0.00,,,0.00,Wunderground v.1.15,2013-08-31 00:25:00,
2013-08-30 20:30:00,72.8,67.3,29.83,SSW,194,5.0,11.0,83,0.00,,,0.00,Wunderground v.1.15,2013-08-31 00:30:00,
2013-08-30 20:35:00,72.7,67.2,29.83,SSW,199,6.0,11.0,83,0.00,,,0.00,Wunderground v.1.15,2013-08-31 00:35:00,
2013-08-30 20:45:00,72.5,67.4,29.83,SSW,194,6.0,11.0,84,0.00,,,0.00,Wunderground v.1.15,2013-08-31 00:45:00,
2013-08-30 20:50:00,72.4,67.3,29.83,South,182,5.0,11.0,84,0.00,,,0.00,Wunderground v.1.15,2013-08-31 00:50:00,
2013-08-30 20:55:00,72.3,67.2,29.83,South,189,5.0,11.0,84,0.00,,,0.00,Wunderground v.1.15,2013-08-31 00:55:00,
2013-08-30 21:00:00,72.1,67.0,29.83,South,174,5.0,11.0,84,0.00,,,0.00,Wunderground v.1.15,2013-08-31 01:00:00,
2013-08-30 21:05:00,72.1,67.3,29.83,South,190,5.0,11.0,85,0.00,,,0.00,Wunderground v.1.15,2013-08-31 01:05:00,
2013-08-30 21:15:00,71.9,67.1,29.82,SSW,195,4.0,11.0,85,0.00,,,0.00,Wunderground v.1.15,2013-08-31 01:15:00,
2013-08-30 21:20:00,71.7,67.3,29.82,South,189,4.0,4.0,86,0.00,,,0.00,Wunderground v.1.15,2013-08-31 01:20:00,
2013-08-30 21:25:00,71.5,67.1,29.82,SSW,203,3.0,11.0,86,0.00,,,0.00,Wunderground v.1.15,2013-08-31 01:25:00,
2013-08-30 21:35:00,71.2,67.1,29.82,SSW,207,3.0,11.0,87,0.00,,,0.00,Wunderground v.1.15,2013-08-31 01:35:00,
2013-08-30 21:45:00,71.3,67.2,29.83,SSW,199,3.0,4.0,87,0.00,,,0.00,Wunderground v.1.15,2013-08-31 01:45:00,
2013-08-30 21:50:00,71.3,66.9,29.82,South,186,3.0,11.0,86,0.00,,,0.00,Wunderground v.1.15,2013-08-31 01:50:00,
2013-08-30 22:00:00,71.3,66.9,29.82,SW,215,3.0,11.0,86,0.00,,,0.00,Wunderground v.1.15,2013-08-31 02:00:00,
2013-08-30 22:05:00,71.5,67.1,29.82,SW,220,4.0,11.0,86,0.00,,,0.00,Wunderground v.1.15,2013-08-31 02:05:00,
2013-08-30 22:10:00,71.5,67.1,29.82,SSW,202,4.0,4.0,86,0.00,,,0.00,Wunderground v.1.15,2013-08-31 02:10:00,
2013-08-30 22:15:00,71.3,66.9,29.82,SSW,205,3.0,11.0,86,0.00,,,0.00,Wunderground v.1.15,2013-08-31 02:15:00,
2013-08-30 22:20:00,71.1,66.7,29.82,WSW,245,3.0,3.0,86,0.00,,,0.00,Wunderground v.1.15,2013-08-31 02:20:00,
2013-08-30 22:30:00,70.9,66.8,29.82,SSW,195,2.0,11.0,87,0.00,,,0.00,Wunderground v.1.15,2013-08-31 02:30:00,
2013-08-30 22:35:00,71.0,66.9,29.82,SSW,199,3.0,11.0,87,0.00,,,0.00,Wunderground v.1.15,2013-08-31 02:35:00,
2013-08-30 22:40:00,71.0,66.9,29.82,SSW,196,4.0,11.0,87,0.00,,,0.00,Wunderground v.1.15,2013-08-31 02:40:00,
2013-08-30 22:45:00,70.9,66.8,29.82,South,189,4.0,11.0,87,0.00,,,0.00,Wunderground v.1.15,2013-08-31 02:45:00,
2013-08-30 22:55:00,70.7,66.6,29.82,South,182,5.0,11.0,87,0.00,,,0.00,Wunderground v.1.15,2013-08-31 02:55:00,
2013-08-30 23:00:00,70.6,66.9,29.82,South,182,4.0,11.0,88,0.00,,,0.00,Wunderground v.1.15,2013-08-31 03:00:00,
2013-08-30 23:05:00,70.5,66.8,29.82,South,188,4.0,11.0,88,0.00,,,0.00,Wunderground v.1.15,2013-08-31 03:05:00,
2013-08-30 23:10:00,70.5,66.8,29.82,SSW,194,4.0,11.0,88,0.00,,,0.00,Wunderground v.1.15,2013-08-31 03:10:00,
2013-08-30 23:20:00,70.7,66.6,29.82,SW,216,4.0,11.0,87,0.00,,,0.00,Wunderground v.1.15,2013-08-31 03:20:00,
2013-08-30 23:25:00,71.0,66.9,29.82,SW,216,4.0,11.0,87,0.00,,,0.00,Wunderground v.1.15,2013-08-31 03:25:00,
2013-08-30 23:30:00,71.1,67.0,29.81,SSW,201,4.0,4.0,87,0.00,,,0.00,Wunderground v.1.15,2013-08-31 03:30:00,
2013-08-30 23:35:00,71.1,67.0,29.81,SSW,197,4.0,5.0,87,0.00,,,0.00,Wunderground v.1.15,2013-08-31 03:35:00,
2013-08-30 23:40:00,71.1,67.0,29.81,SSW,213,4.0,4.0,87,0.00,,,0.00,Wunderground v.1.15,2013-08-31 03:40:00,
2013-08-30 23:50:00,71.3,66.9,29.81,SSW,196,4.0,4.0,86,0.00,,,0.00,Wunderground v.1.15,2013-08-31 03:50:00,
2013-08-30 23:55:00,71.5,67.1,29.81,SSW,199,6.0,6.0,86,0.00,,,0.00,Wunderground v.1.15,2013-08-31 03:55:00,